METAR Benelux - 19 Feb 2018 - 0148 UTC - RocketRoute WX - rrwx.com
EBBR 190120Z 19006KT CAVOK 00/M02 Q1022 NOSIG EBCI 190120Z 18007KT 6000 NSC M01/M03 Q1021 NOSIG EBAW 190120Z AUTO VRB02KT 7000 // NCD M02/M04 Q1022 EBLG 190120Z 18007KT 8000 NSC M00/M03 Q1022 NOSIG EBOS 190120Z 17007KT CAVOK 02/M01 Q1021 NOSIG EHEH 190125Z AUTO 18003KT 9999 OVC220 M02/M03 Q1022 BLU EHGG 190125Z AUTO 19004KT 8000 NSC 01/M01 Q1021 EHBK 190125Z AUTO 14002KT 9000 NSC M01/M03 Q1022 EHRD 190125Z AUTO 19007KT 9999 NSC 03/M00 Q1021 NOSIG EHAM 190125Z 16006KT 7000 NSC 00/M01 Q1021 NOSIG ELLX 190120Z AUTO 09004KT 7000 OVC013/// M03/M04 Q1021 NOSIG

RocketRoute WX - rrwx.com weather for pilots